Terminal Aerodrome Forecast
Issued by NWS Des Moines, IA

Home | Current Version | Previous Version | Text Only | Print | Product List | Glossary On
Versions: 1 2 3 4 5 6 7 8 9 10 11 12 13 14 15 16 17 18 19 20 21 22 23 24 25 26 27 28
000
FTUS43 KDMX 120538
TAFALO
TAF
KALO 120538Z 1206/1306 VRB03KT P6SM OVC040
     FM120700 25005KT P6SM SCT015 OVC025
     FM121200 32013KT P6SM SCT015 BKN035
     FM121600 34019G25KT P6SM SCT020
     FM130100 32011KT P6SM FEW020 SCT200=

USA.gov is the U.S. government's official web portal to all federal, state and local government web resources and services.